sensor_id;sensor_type;location;lat;lon;timestamp;P1;durP1;ratioP1;P2;durP2;ratioP2
12348;SDS011;5974;42.710;27.258;2023-06-22T00:01:13;9.97;;;8.97;;
12348;SDS011;5974;42.710;27.258;2023-06-22T00:03:39;13.60;;;8.87;;
12348;SDS011;5974;42.710;27.258;2023-06-22T00:06:06;9.50;;;8.60;;
12348;SDS011;5974;42.710;27.258;2023-06-22T00:08:33;9.90;;;8.47;;
12348;SDS011;5974;42.710;27.258;2023-06-22T00:11:00;10.13;;;9.10;;
12348;SDS011;5974;42.710;27.258;2023-06-22T00:13:27;10.17;;;9.27;;
12348;SDS011;5974;42.710;27.258;2023-06-22T00:15:55;9.97;;;9.17;;
12348;SDS011;5974;42.710;27.258;2023-06-22T00:18:22;10.40;;;9.50;;
12348;SDS011;5974;42.710;27.258;2023-06-22T00:20:52;11.73;;;9.43;;
12348;SDS011;5974;42.710;27.258;2023-06-22T00:23:23;9.50;;;8.30;;
12348;SDS011;5974;42.710;27.258;2023-06-22T00:25:50;9.53;;;8.63;;
12348;SDS011;5974;42.710;27.258;2023-06-22T00:28:18;9.57;;;8.53;;
12348;SDS011;5974;42.710;27.258;2023-06-22T00:30:45;12.40;;;9.00;;
12348;SDS011;5974;42.710;27.258;2023-06-22T00:33:14;9.47;;;8.47;;
12348;SDS011;5974;42.710;27.258;2023-06-22T00:35:41;10.07;;;8.63;;
12348;SDS011;5974;42.710;27.258;2023-06-22T00:38:08;13.00;;;9.20;;
12348;SDS011;5974;42.710;27.258;2023-06-22T00:40:35;11.43;;;8.30;;
12348;SDS011;5974;42.710;27.258;2023-06-22T00:43:02;12.60;;;8.97;;
12348;SDS011;5974;42.710;27.258;2023-06-22T00:45:30;10.10;;;8.77;;
12348;SDS011;5974;42.710;27.258;2023-06-22T00:47:57;10.13;;;9.13;;
12348;SDS011;5974;42.710;27.258;2023-06-22T00:50:27;10.63;;;9.23;;
12348;SDS011;5974;42.710;27.258;2023-06-22T00:52:59;12.17;;;9.37;;
12348;SDS011;5974;42.710;27.258;2023-06-22T00:55:29;11.27;;;9.53;;
12348;SDS011;5974;42.710;27.258;2023-06-22T00:57:56;11.33;;;9.37;;
12348;SDS011;5974;42.710;27.258;2023-06-22T01:00:23;12.70;;;9.00;;
12348;SDS011;5974;42.710;27.258;2023-06-22T01:02:51;10.73;;;8.70;;
12348;SDS011;5974;42.710;27.258;2023-06-22T01:05:19;15.87;;;8.80;;
12348;SDS011;5974;42.710;27.258;2023-06-22T01:07:52;10.33;;;9.27;;
12348;SDS011;5974;42.710;27.258;2023-06-22T01:10:28;11.63;;;8.63;;
12348;SDS011;5974;42.710;27.258;2023-06-22T01:13:01;10.10;;;8.60;;
12348;SDS011;5974;42.710;27.258;2023-06-22T01:15:31;11.20;;;8.87;;
12348;SDS011;5974;42.710;27.258;2023-06-22T01:18:04;9.87;;;8.87;;
12348;SDS011;5974;42.710;27.258;2023-06-22T01:20:32;10.03;;;8.73;;
12348;SDS011;5974;42.710;27.258;2023-06-22T01:23:10;9.83;;;8.83;;
12348;SDS011;5974;42.710;27.258;2023-06-22T01:25:45;9.90;;;8.80;;
12348;SDS011;5974;42.710;27.258;2023-06-22T01:28:20;12.40;;;9.70;;
12348;SDS011;5974;42.710;27.258;2023-06-22T01:30:53;14.43;;;9.53;;
12348;SDS011;5974;42.710;27.258;2023-06-22T01:33:31;13.13;;;9.60;;
12348;SDS011;5974;42.710;27.258;2023-06-22T01:36:01;9.97;;;8.73;;
12348;SDS011;5974;42.710;27.258;2023-06-22T01:38:29;10.13;;;9.00;;
12348;SDS011;5974;42.710;27.258;2023-06-22T01:40:57;10.00;;;8.97;;
12348;SDS011;5974;42.710;27.258;2023-06-22T01:43:25;12.77;;;9.33;;
12348;SDS011;5974;42.710;27.258;2023-06-22T01:45:55;11.17;;;9.97;;
12348;SDS011;5974;42.710;27.258;2023-06-22T01:48:23;11.03;;;9.60;;
12348;SDS011;5974;42.710;27.258;2023-06-22T01:50:51;10.63;;;9.30;;
12348;SDS011;5974;42.710;27.258;2023-06-22T01:53:20;10.70;;;9.63;;
12348;SDS011;5974;42.710;27.258;2023-06-22T01:55:47;10.67;;;9.57;;
12348;SDS011;5974;42.710;27.258;2023-06-22T01:58:14;11.20;;;9.67;;
12348;SDS011;5974;42.710;27.258;2023-06-22T02:00:44;10.67;;;9.60;;
12348;SDS011;5974;42.710;27.258;2023-06-22T02:03:17;10.93;;;9.50;;
12348;SDS011;5974;42.710;27.258;2023-06-22T02:05:49;10.20;;;9.33;;
12348;SDS011;5974;42.710;27.258;2023-06-22T02:08:19;10.40;;;9.43;;
12348;SDS011;5974;42.710;27.258;2023-06-22T02:10:48;11.53;;;9.90;;
12348;SDS011;5974;42.710;27.258;2023-06-22T02:13:17;10.37;;;9.03;;
12348;SDS011;5974;42.710;27.258;2023-06-22T02:15:45;11.13;;;9.87;;
12348;SDS011;5974;42.710;27.258;2023-06-22T02:18:13;9.73;;;8.90;;
12348;SDS011;5974;42.710;27.258;2023-06-22T02:20:42;10.80;;;9.80;;
12348;SDS011;5974;42.710;27.258;2023-06-22T02:23:09;16.53;;;9.50;;
12348;SDS011;5974;42.710;27.258;2023-06-22T02:25:36;10.73;;;9.73;;
12348;SDS011;5974;42.710;27.258;2023-06-22T02:28:03;12.40;;;9.53;;
12348;SDS011;5974;42.710;27.258;2023-06-22T02:30:31;12.87;;;9.93;;
12348;SDS011;5974;42.710;27.258;2023-06-22T02:32:58;10.50;;;9.60;;
12348;SDS011;5974;42.710;27.258;2023-06-22T02:35:25;11.73;;;10.03;;
12348;SDS011;5974;42.710;27.258;2023-06-22T02:37:57;11.40;;;10.30;;
12348;SDS011;5974;42.710;27.258;2023-06-22T02:40:25;10.20;;;9.20;;
12348;SDS011;5974;42.710;27.258;2023-06-22T02:42:53;11.33;;;9.87;;
12348;SDS011;5974;42.710;27.258;2023-06-22T02:45:20;11.07;;;9.57;;
12348;SDS011;5974;42.710;27.258;2023-06-22T02:47:47;9.90;;;9.00;;
12348;SDS011;5974;42.710;27.258;2023-06-22T02:50:14;12.03;;;9.90;;
12348;SDS011;5974;42.710;27.258;2023-06-22T02:52:41;10.27;;;9.23;;
12348;SDS011;5974;42.710;27.258;2023-06-22T02:55:09;10.17;;;9.27;;
12348;SDS011;5974;42.710;27.258;2023-06-22T02:57:36;10.43;;;9.53;;
12348;SDS011;5974;42.710;27.258;2023-06-22T03:00:09;14.10;;;9.53;;
12348;SDS011;5974;42.710;27.258;2023-06-22T03:02:43;11.07;;;9.77;;
12348;SDS011;5974;42.710;27.258;2023-06-22T03:05:10;12.40;;;9.47;;
12348;SDS011;5974;42.710;27.258;2023-06-22T03:07:39;9.83;;;8.87;;
12348;SDS011;5974;42.710;27.258;2023-06-22T03:10:07;10.40;;;9.47;;
12348;SDS011;5974;42.710;27.258;2023-06-22T03:12:36;10.10;;;9.20;;
12348;SDS011;5974;42.710;27.258;2023-06-22T03:15:04;10.57;;;9.50;;
12348;SDS011;5974;42.710;27.258;2023-06-22T03:17:33;10.40;;;9.50;;
12348;SDS011;5974;42.710;27.258;2023-06-22T03:20:00;9.30;;;8.50;;
12348;SDS011;5974;42.710;27.258;2023-06-22T03:22:31;10.17;;;9.30;;
12348;SDS011;5974;42.710;27.258;2023-06-22T03:24:58;9.97;;;9.07;;
12348;SDS011;5974;42.710;27.258;2023-06-22T03:27:26;10.40;;;8.80;;
12348;SDS011;5974;42.710;27.258;2023-06-22T03:29:53;9.90;;;8.50;;
12348;SDS011;5974;42.710;27.258;2023-06-22T03:32:20;10.30;;;8.40;;
12348;SDS011;5974;42.710;27.258;2023-06-22T03:34:47;12.53;;;9.10;;
12348;SDS011;5974;42.710;27.258;2023-06-22T03:37:14;9.03;;;8.13;;
12348;SDS011;5974;42.710;27.258;2023-06-22T03:39:41;10.27;;;8.73;;
12348;SDS011;5974;42.710;27.258;2023-06-22T03:42:08;10.07;;;8.43;;
12348;SDS011;5974;42.710;27.258;2023-06-22T03:44:36;10.77;;;8.33;;
12348;SDS011;5974;42.710;27.258;2023-06-22T03:47:03;12.73;;;8.57;;
12348;SDS011;5974;42.710;27.258;2023-06-22T03:49:32;10.53;;;8.50;;
12348;SDS011;5974;42.710;27.258;2023-06-22T03:51:59;9.93;;;8.00;;
12348;SDS011;5974;42.710;27.258;2023-06-22T03:54:27;8.80;;;8.00;;
12348;SDS011;5974;42.710;27.258;2023-06-22T03:56:54;14.93;;;7.93;;
12348;SDS011;5974;42.710;27.258;2023-06-22T03:59:21;7.83;;;7.03;;
12348;SDS011;5974;42.710;27.258;2023-06-22T04:01:49;9.37;;;6.00;;
12348;SDS011;5974;42.710;27.258;2023-06-22T04:04:16;6.87;;;6.27;;
12348;SDS011;5974;42.710;27.258;2023-06-22T04:06:44;7.13;;;6.40;;
12348;SDS011;5974;42.710;27.258;2023-06-22T04:09:11;6.50;;;5.80;;
12348;SDS011;5974;42.710;27.258;2023-06-22T04:11:38;6.83;;;6.13;;
12348;SDS011;5974;42.710;27.258;2023-06-22T04:14:05;6.20;;;5.47;;
12348;SDS011;5974;42.710;27.258;2023-06-22T04:16:31;7.20;;;5.70;;
12348;SDS011;5974;42.710;27.258;2023-06-22T04:19:00;7.88;;;5.65;;
12348;SDS011;5974;42.710;27.258;2023-06-22T04:21:27;6.30;;;5.32;;
12348;SDS011;5974;42.710;27.258;2023-06-22T04:23:54;6.65;;;5.00;;
12348;SDS011;5974;42.710;27.258;2023-06-22T04:26:21;5.88;;;5.40;;
12348;SDS011;5974;42.710;27.258;2023-06-22T04:28:48;6.03;;;5.28;;
12348;SDS011;5974;42.710;27.258;2023-06-22T04:31:16;6.00;;;5.50;;
12348;SDS011;5974;42.710;27.258;2023-06-22T04:33:44;6.40;;;5.80;;
12348;SDS011;5974;42.710;27.258;2023-06-22T04:36:13;5.78;;;5.07;;
12348;SDS011;5974;42.710;27.258;2023-06-22T04:38:40;5.85;;;5.40;;
12348;SDS011;5974;42.710;27.258;2023-06-22T04:41:07;6.63;;;5.95;;
12348;SDS011;5974;42.710;27.258;2023-06-22T04:43:39;6.93;;;5.00;;
12348;SDS011;5974;42.710;27.258;2023-06-22T04:46:06;5.25;;;4.85;;
12348;SDS011;5974;42.710;27.258;2023-06-22T04:48:33;5.25;;;4.88;;
12348;SDS011;5974;42.710;27.258;2023-06-22T04:51:00;5.63;;;5.15;;
12348;SDS011;5974;42.710;27.258;2023-06-22T04:53:30;5.70;;;5.13;;
12348;SDS011;5974;42.710;27.258;2023-06-22T04:55:57;6.18;;;5.15;;
12348;SDS011;5974;42.710;27.258;2023-06-22T04:58:24;7.55;;;5.85;;
12348;SDS011;5974;42.710;27.258;2023-06-22T05:00:54;6.03;;;4.90;;
12348;SDS011;5974;42.710;27.258;2023-06-22T05:03:22;9.27;;;5.25;;
12348;SDS011;5974;42.710;27.258;2023-06-22T05:05:51;7.78;;;5.03;;
12348;SDS011;5974;42.710;27.258;2023-06-22T05:08:19;6.90;;;5.25;;
12348;SDS011;5974;42.710;27.258;2023-06-22T05:10:47;5.43;;;4.93;;
12348;SDS011;5974;42.710;27.258;2023-06-22T05:13:14;5.88;;;5.20;;
12348;SDS011;5974;42.710;27.258;2023-06-22T05:15:41;5.78;;;5.10;;
12348;SDS011;5974;42.710;27.258;2023-06-22T05:18:07;5.60;;;5.20;;
12348;SDS011;5974;42.710;27.258;2023-06-22T05:20:37;5.47;;;4.95;;
12348;SDS011;5974;42.710;27.258;2023-06-22T05:23:04;4.72;;;4.32;;
12348;SDS011;5974;42.710;27.258;2023-06-22T05:25:30;4.85;;;4.45;;
12348;SDS011;5974;42.710;27.258;2023-06-22T05:27:59;4.72;;;4.35;;
12348;SDS011;5974;42.710;27.258;2023-06-22T05:30:26;5.05;;;4.55;;
12348;SDS011;5974;42.710;27.258;2023-06-22T05:32:53;5.70;;;4.57;;
12348;SDS011;5974;42.710;27.258;2023-06-22T05:35:20;6.13;;;4.65;;
12348;SDS011;5974;42.710;27.258;2023-06-22T05:37:47;6.43;;;4.55;;
12348;SDS011;5974;42.710;27.258;2023-06-22T05:40:14;6.28;;;4.43;;
12348;SDS011;5974;42.710;27.258;2023-06-22T05:42:41;5.45;;;4.95;;
12348;SDS011;5974;42.710;27.258;2023-06-22T05:45:09;5.03;;;4.53;;
12348;SDS011;5974;42.710;27.258;2023-06-22T05:47:36;4.88;;;4.47;;
12348;SDS011;5974;42.710;27.258;2023-06-22T05:50:03;5.25;;;4.22;;
12348;SDS011;5974;42.710;27.258;2023-06-22T05:52:33;4.75;;;4.45;;
12348;SDS011;5974;42.710;27.258;2023-06-22T05:55:01;4.80;;;4.40;;
12348;SDS011;5974;42.710;27.258;2023-06-22T05:57:28;5.15;;;4.40;;
12348;SDS011;5974;42.710;27.258;2023-06-22T05:59:55;5.25;;;4.75;;
12348;SDS011;5974;42.710;27.258;2023-06-22T06:02:23;5.22;;;4.72;;
12348;SDS011;5974;42.710;27.258;2023-06-22T06:04:50;4.50;;;4.10;;
12348;SDS011;5974;42.710;27.258;2023-06-22T06:07:17;10.43;;;5.00;;
12348;SDS011;5974;42.710;27.258;2023-06-22T06:09:44;4.82;;;4.30;;
12348;SDS011;5974;42.710;27.258;2023-06-22T06:12:13;5.50;;;4.55;;
12348;SDS011;5974;42.710;27.258;2023-06-22T06:14:40;5.18;;;4.70;;
12348;SDS011;5974;42.710;27.258;2023-06-22T06:17:06;6.10;;;4.28;;
12348;SDS011;5974;42.710;27.258;2023-06-22T06:19:35;9.27;;;5.00;;
12348;SDS011;5974;42.710;27.258;2023-06-22T06:22:02;6.38;;;5.15;;
12348;SDS011;5974;42.710;27.258;2023-06-22T06:24:29;4.85;;;4.55;;
12348;SDS011;5974;42.710;27.258;2023-06-22T06:26:56;6.03;;;4.28;;
12348;SDS011;5974;42.710;27.258;2023-06-22T06:29:22;4.88;;;4.30;;
12348;SDS011;5974;42.710;27.258;2023-06-22T06:31:50;5.38;;;4.03;;
12348;SDS011;5974;42.710;27.258;2023-06-22T06:34:16;4.38;;;3.97;;
12348;SDS011;5974;42.710;27.258;2023-06-22T06:36:45;4.68;;;4.30;;
12348;SDS011;5974;42.710;27.258;2023-06-22T06:39:12;4.47;;;4.18;;
12348;SDS011;5974;42.710;27.258;2023-06-22T06:41:41;4.22;;;3.92;;
12348;SDS011;5974;42.710;27.258;2023-06-22T06:44:08;5.32;;;3.95;;
12348;SDS011;5974;42.710;27.258;2023-06-22T06:46:34;4.45;;;4.18;;
12348;SDS011;5974;42.710;27.258;2023-06-22T06:49:02;4.63;;;4.22;;
12348;SDS011;5974;42.710;27.258;2023-06-22T06:51:28;4.68;;;4.28;;
12348;SDS011;5974;42.710;27.258;2023-06-22T06:53:57;4.93;;;3.92;;
12348;SDS011;5974;42.710;27.258;2023-06-22T06:56:24;4.13;;;3.83;;
12348;SDS011;5974;42.710;27.258;2023-06-22T06:58:51;4.85;;;3.92;;
12348;SDS011;5974;42.710;27.258;2023-06-22T07:01:18;7.57;;;3.78;;
12348;SDS011;5974;42.710;27.258;2023-06-22T07:03:46;4.53;;;4.22;;
12348;SDS011;5974;42.710;27.258;2023-06-22T07:06:13;4.57;;;4.05;;
12348;SDS011;5974;42.710;27.258;2023-06-22T07:08:41;4.15;;;3.80;;
12348;SDS011;5974;42.710;27.258;2023-06-22T07:11:09;3.92;;;3.70;;
12348;SDS011;5974;42.710;27.258;2023-06-22T07:13:36;4.13;;;3.83;;
12348;SDS011;5974;42.710;27.258;2023-06-22T07:16:04;6.50;;;4.00;;
12348;SDS011;5974;42.710;27.258;2023-06-22T07:18:30;4.18;;;3.88;;
12348;SDS011;5974;42.710;27.258;2023-06-22T07:20:57;4.03;;;3.83;;
12348;SDS011;5974;42.710;27.258;2023-06-22T07:23:24;4.43;;;4.20;;
12348;SDS011;5974;42.710;27.258;2023-06-22T07:25:51;5.57;;;4.40;;
12348;SDS011;5974;42.710;27.258;2023-06-22T07:28:20;4.28;;;3.97;;
12348;SDS011;5974;42.710;27.258;2023-06-22T07:30:47;4.63;;;4.03;;
12348;SDS011;5974;42.710;27.258;2023-06-22T07:33:13;4.45;;;4.15;;
12348;SDS011;5974;42.710;27.258;2023-06-22T07:35:40;4.75;;;4.22;;
12348;SDS011;5974;42.710;27.258;2023-06-22T07:38:07;5.18;;;4.40;;
12348;SDS011;5974;42.710;27.258;2023-06-22T07:40:34;4.55;;;4.22;;
12348;SDS011;5974;42.710;27.258;2023-06-22T07:43:01;4.63;;;4.22;;
12348;SDS011;5974;42.710;27.258;2023-06-22T07:45:30;4.15;;;3.85;;
12348;SDS011;5974;42.710;27.258;2023-06-22T07:47:58;4.80;;;4.40;;
12348;SDS011;5974;42.710;27.258;2023-06-22T07:50:25;4.50;;;4.10;;
12348;SDS011;5974;42.710;27.258;2023-06-22T07:52:52;5.28;;;4.10;;
12348;SDS011;5974;42.710;27.258;2023-06-22T07:55:19;4.07;;;3.78;;
12348;SDS011;5974;42.710;27.258;2023-06-22T07:57:46;4.47;;;4.10;;
12348;SDS011;5974;42.710;27.258;2023-06-22T08:00:17;4.13;;;3.80;;
12348;SDS011;5974;42.710;27.258;2023-06-22T08:02:45;4.18;;;3.97;;
12348;SDS011;5974;42.710;27.258;2023-06-22T08:05:14;4.40;;;4.10;;
12348;SDS011;5974;42.710;27.258;2023-06-22T08:07:42;4.50;;;4.13;;
12348;SDS011;5974;42.710;27.258;2023-06-22T08:10:10;4.47;;;4.10;;
12348;SDS011;5974;42.710;27.258;2023-06-22T08:12:38;5.82;;;4.10;;
12348;SDS011;5974;42.710;27.258;2023-06-22T08:15:05;4.47;;;4.07;;
12348;SDS011;5974;42.710;27.258;2023-06-22T08:17:34;4.50;;;4.10;;
12348;SDS011;5974;42.710;27.258;2023-06-22T08:20:04;4.68;;;4.25;;
12348;SDS011;5974;42.710;27.258;2023-06-22T08:22:34;4.53;;;4.13;;
12348;SDS011;5974;42.710;27.258;2023-06-22T08:25:01;4.53;;;4.00;;
12348;SDS011;5974;42.710;27.258;2023-06-22T08:27:29;11.27;;;4.50;;
12348;SDS011;5974;42.710;27.258;2023-06-22T08:29:57;4.03;;;3.63;;
12348;SDS011;5974;42.710;27.258;2023-06-22T08:32:24;4.70;;;4.10;;
12348;SDS011;5974;42.710;27.258;2023-06-22T08:34:51;5.75;;;4.43;;
12348;SDS011;5974;42.710;27.258;2023-06-22T08:37:20;4.60;;;4.20;;
12348;SDS011;5974;42.710;27.258;2023-06-22T08:39:55;4.90;;;4.05;;
12348;SDS011;5974;42.710;27.258;2023-06-22T08:42:22;4.70;;;4.30;;
12348;SDS011;5974;42.710;27.258;2023-06-22T08:44:50;4.05;;;3.75;;
12348;SDS011;5974;42.710;27.258;2023-06-22T08:47:18;4.90;;;4.50;;
12348;SDS011;5974;42.710;27.258;2023-06-22T08:49:45;10.50;;;4.80;;
12348;SDS011;5974;42.710;27.258;2023-06-22T08:52:12;8.00;;;4.00;;
12348;SDS011;5974;42.710;27.258;2023-06-22T08:54:40;5.15;;;4.22;;
12348;SDS011;5974;42.710;27.258;2023-06-22T08:57:07;4.60;;;4.13;;
12348;SDS011;5974;42.710;27.258;2023-06-22T08:59:34;4.80;;;4.40;;
12348;SDS011;5974;42.710;27.258;2023-06-22T09:02:01;4.30;;;4.10;;
12348;SDS011;5974;42.710;27.258;2023-06-22T09:04:28;4.47;;;4.18;;
12348;SDS011;5974;42.710;27.258;2023-06-22T09:06:55;44.85;;;7.43;;
12348;SDS011;5974;42.710;27.258;2023-06-22T09:09:22;5.00;;;4.25;;
12348;SDS011;5974;42.710;27.258;2023-06-22T09:11:50;6.50;;;4.50;;
12348;SDS011;5974;42.710;27.258;2023-06-22T09:14:17;6.68;;;4.32;;
12348;SDS011;5974;42.710;27.258;2023-06-22T09:16:44;5.05;;;4.55;;
12348;SDS011;5974;42.710;27.258;2023-06-22T09:19:11;5.10;;;4.68;;
12348;SDS011;5974;42.710;27.258;2023-06-22T09:21:38;5.93;;;4.53;;
12348;SDS011;5974;42.710;27.258;2023-06-22T09:24:05;5.00;;;4.50;;
12348;SDS011;5974;42.710;27.258;2023-06-22T09:26:33;5.40;;;4.63;;
12348;SDS011;5974;42.710;27.258;2023-06-22T09:29:01;5.25;;;4.75;;
12348;SDS011;5974;42.710;27.258;2023-06-22T09:31:31;4.78;;;4.38;;
12348;SDS011;5974;42.710;27.258;2023-06-22T09:33:58;4.97;;;4.68;;
12348;SDS011;5974;42.710;27.258;2023-06-22T09:36:25;5.33;;;4.67;;
12348;SDS011;5974;42.710;27.258;2023-06-22T09:38:52;6.72;;;4.88;;
12348;SDS011;5974;42.710;27.258;2023-06-22T09:41:21;4.88;;;4.45;;
12348;SDS011;5974;42.710;27.258;2023-06-22T09:43:48;5.60;;;4.63;;
12348;SDS011;5974;42.710;27.258;2023-06-22T09:46:16;17.95;;;5.55;;
12348;SDS011;5974;42.710;27.258;2023-06-22T09:48:43;7.38;;;4.68;;
12348;SDS011;5974;42.710;27.258;2023-06-22T09:51:11;5.18;;;4.78;;
12348;SDS011;5974;42.710;27.258;2023-06-22T09:53:38;7.03;;;4.80;;
12348;SDS011;5974;42.710;27.258;2023-06-22T09:56:05;6.37;;;4.50;;
12348;SDS011;5974;42.710;27.258;2023-06-22T09:58:32;4.87;;;4.37;;
12348;SDS011;5974;42.710;27.258;2023-06-22T10:00:59;5.20;;;4.70;;
12348;SDS011;5974;42.710;27.258;2023-06-22T10:03:27;4.80;;;4.37;;
12348;SDS011;5974;42.710;27.258;2023-06-22T10:05:54;4.77;;;4.47;;
12348;SDS011;5974;42.710;27.258;2023-06-22T10:08:21;5.27;;;4.87;;
12348;SDS011;5974;42.710;27.258;2023-06-22T10:10:48;6.18;;;4.90;;
12348;SDS011;5974;42.710;27.258;2023-06-22T10:13:15;5.13;;;4.43;;
12348;SDS011;5974;42.710;27.258;2023-06-22T10:15:42;5.30;;;4.90;;
12348;SDS011;5974;42.710;27.258;2023-06-22T10:18:10;5.00;;;4.70;;
12348;SDS011;5974;42.710;27.258;2023-06-22T10:20:38;4.95;;;4.50;;
12348;SDS011;5974;42.710;27.258;2023-06-22T10:23:05;5.00;;;4.57;;
12348;SDS011;5974;42.710;27.258;2023-06-22T10:25:32;4.88;;;4.30;;
12348;SDS011;5974;42.710;27.258;2023-06-22T10:27:59;4.50;;;4.20;;
12348;SDS011;5974;42.710;27.258;2023-06-22T10:30:26;5.30;;;4.80;;
12348;SDS011;5974;42.710;27.258;2023-06-22T10:32:54;4.20;;;3.90;;
12348;SDS011;5974;42.710;27.258;2023-06-22T10:35:21;4.25;;;4.00;;
12348;SDS011;5974;42.710;27.258;2023-06-22T10:37:49;4.60;;;4.30;;
12348;SDS011;5974;42.710;27.258;2023-06-22T10:40:17;6.35;;;4.13;;
12348;SDS011;5974;42.710;27.258;2023-06-22T10:42:44;5.30;;;4.80;;
12348;SDS011;5974;42.710;27.258;2023-06-22T10:45:11;4.90;;;4.50;;
12348;SDS011;5974;42.710;27.258;2023-06-22T10:47:38;5.95;;;4.60;;
12348;SDS011;5974;42.710;27.258;2023-06-22T10:50:07;9.05;;;4.55;;
12348;SDS011;5974;42.710;27.258;2023-06-22T10:52:35;5.10;;;4.70;;
12348;SDS011;5974;42.710;27.258;2023-06-22T10:55:03;5.03;;;4.10;;
12348;SDS011;5974;42.710;27.258;2023-06-22T10:57:30;5.00;;;4.50;;
12348;SDS011;5974;42.710;27.258;2023-06-22T10:59:57;4.60;;;4.20;;
12348;SDS011;5974;42.710;27.258;2023-06-22T11:02:24;4.78;;;4.18;;
12348;SDS011;5974;42.710;27.258;2023-06-22T11:04:53;4.50;;;4.20;;
12348;SDS011;5974;42.710;27.258;2023-06-22T11:07:20;4.40;;;4.00;;
12348;SDS011;5974;42.710;27.258;2023-06-22T11:09:47;9.25;;;4.82;;
12348;SDS011;5974;42.710;27.258;2023-06-22T11:12:15;4.82;;;4.50;;
12348;SDS011;5974;42.710;27.258;2023-06-22T11:14:42;5.20;;;4.70;;
12348;SDS011;5974;42.710;27.258;2023-06-22T11:17:09;4.93;;;4.45;;
12348;SDS011;5974;42.710;27.258;2023-06-22T11:19:36;4.95;;;4.57;;
12348;SDS011;5974;42.710;27.258;2023-06-22T11:22:03;4.15;;;3.95;;
12348;SDS011;5974;42.710;27.258;2023-06-22T11:24:30;4.70;;;4.30;;
12348;SDS011;5974;42.710;27.258;2023-06-22T11:26:58;4.95;;;4.45;;
12348;SDS011;5974;42.710;27.258;2023-06-22T11:29:26;4.45;;;4.05;;
12348;SDS011;5974;42.710;27.258;2023-06-22T11:31:53;4.50;;;4.20;;
12348;SDS011;5974;42.710;27.258;2023-06-22T11:34:20;5.27;;;4.90;;
12348;SDS011;5974;42.710;27.258;2023-06-22T11:36:47;4.90;;;4.50;;
12348;SDS011;5974;42.710;27.258;2023-06-22T11:39:14;5.23;;;4.50;;
12348;SDS011;5974;42.710;27.258;2023-06-22T11:41:41;5.23;;;4.63;;
12348;SDS011;5974;42.710;27.258;2023-06-22T11:44:07;5.87;;;4.70;;
12348;SDS011;5974;42.710;27.258;2023-06-22T11:46:36;4.90;;;4.60;;
12348;SDS011;5974;42.710;27.258;2023-06-22T11:49:03;4.65;;;4.25;;
12348;SDS011;5974;42.710;27.258;2023-06-22T11:51:30;6.25;;;4.75;;
12348;SDS011;5974;42.710;27.258;2023-06-22T11:53:58;5.18;;;4.78;;
12348;SDS011;5974;42.710;27.258;2023-06-22T11:56:25;4.70;;;4.30;;
12348;SDS011;5974;42.710;27.258;2023-06-22T11:58:52;4.90;;;4.60;;
12348;SDS011;5974;42.710;27.258;2023-06-22T12:01:20;4.70;;;4.40;;
12348;SDS011;5974;42.710;27.258;2023-06-22T12:03:48;5.67;;;4.20;;
12348;SDS011;5974;42.710;27.258;2023-06-22T12:06:18;5.97;;;4.13;;
12348;SDS011;5974;42.710;27.258;2023-06-22T12:08:45;4.32;;;4.00;;
12348;SDS011;5974;42.710;27.258;2023-06-22T12:11:12;5.03;;;4.72;;
12348;SDS011;5974;42.710;27.258;2023-06-22T12:13:39;5.05;;;4.40;;
12348;SDS011;5974;42.710;27.258;2023-06-22T12:16:06;5.07;;;4.57;;
12348;SDS011;5974;42.710;27.258;2023-06-22T12:18:33;5.00;;;4.60;;
12348;SDS011;5974;42.710;27.258;2023-06-22T12:21:01;5.55;;;4.75;;
12348;SDS011;5974;42.710;27.258;2023-06-22T12:23:28;5.82;;;5.43;;
12348;SDS011;5974;42.710;27.258;2023-06-22T12:25:55;6.68;;;4.90;;
12348;SDS011;5974;42.710;27.258;2023-06-22T12:28:22;6.80;;;5.30;;
12348;SDS011;5974;42.710;27.258;2023-06-22T12:30:49;6.90;;;5.03;;
12348;SDS011;5974;42.710;27.258;2023-06-22T12:33:16;5.70;;;5.30;;
12348;SDS011;5974;42.710;27.258;2023-06-22T12:35:43;5.27;;;4.87;;
12348;SDS011;5974;42.710;27.258;2023-06-22T12:38:12;5.23;;;4.73;;
12348;SDS011;5974;42.710;27.258;2023-06-22T12:40:39;4.93;;;4.53;;
12348;SDS011;5974;42.710;27.258;2023-06-22T12:43:06;5.43;;;4.63;;
12348;SDS011;5974;42.710;27.258;2023-06-22T12:45:33;5.55;;;5.05;;
12348;SDS011;5974;42.710;27.258;2023-06-22T12:48:00;5.63;;;4.83;;
12348;SDS011;5974;42.710;27.258;2023-06-22T12:50:27;5.13;;;4.72;;
12348;SDS011;5974;42.710;27.258;2023-06-22T12:52:54;5.53;;;5.10;;
12348;SDS011;5974;42.710;27.258;2023-06-22T12:55:22;7.67;;;5.67;;
12348;SDS011;5974;42.710;27.258;2023-06-22T12:57:49;5.67;;;5.27;;
12348;SDS011;5974;42.710;27.258;2023-06-22T13:00:16;5.70;;;5.30;;
12348;SDS011;5974;42.710;27.258;2023-06-22T13:02:43;9.10;;;5.37;;
12348;SDS011;5974;42.710;27.258;2023-06-22T13:05:10;5.60;;;5.00;;
12348;SDS011;5974;42.710;27.258;2023-06-22T13:07:37;7.53;;;5.40;;
12348;SDS011;5974;42.710;27.258;2023-06-22T13:10:04;5.37;;;4.90;;
12348;SDS011;5974;42.710;27.258;2023-06-22T13:12:33;8.60;;;5.40;;
12348;SDS011;5974;42.710;27.258;2023-06-22T13:15:00;5.57;;;5.17;;
12348;SDS011;5974;42.710;27.258;2023-06-22T13:17:28;7.53;;;5.27;;
12348;SDS011;5974;42.710;27.258;2023-06-22T13:19:55;7.23;;;5.30;;
12348;SDS011;5974;42.710;27.258;2023-06-22T13:22:26;7.30;;;5.50;;
12348;SDS011;5974;42.710;27.258;2023-06-22T13:24:54;5.80;;;5.30;;
12348;SDS011;5974;42.710;27.258;2023-06-22T13:27:21;5.90;;;5.33;;
12348;SDS011;5974;42.710;27.258;2023-06-22T13:29:49;5.53;;;5.00;;
12348;SDS011;5974;42.710;27.258;2023-06-22T13:32:17;6.20;;;5.60;;
12348;SDS011;5974;42.710;27.258;2023-06-22T13:34:44;7.93;;;4.87;;
12348;SDS011;5974;42.710;27.258;2023-06-22T13:37:10;6.17;;;5.10;;
12348;SDS011;5974;42.710;27.258;2023-06-22T13:39:37;6.07;;;5.53;;
12348;SDS011;5974;42.710;27.258;2023-06-22T13:42:04;6.60;;;4.93;;
12348;SDS011;5974;42.710;27.258;2023-06-22T13:44:32;8.20;;;5.40;;
12348;SDS011;5974;42.710;27.258;2023-06-22T13:47:00;6.80;;;5.65;;
12348;SDS011;5974;42.710;27.258;2023-06-22T13:49:27;6.47;;;5.68;;
12348;SDS011;5974;42.710;27.258;2023-06-22T13:51:54;6.00;;;5.50;;
12348;SDS011;5974;42.710;27.258;2023-06-22T13:54:21;5.40;;;5.00;;
12348;SDS011;5974;42.710;27.258;2023-06-22T13:56:48;6.00;;;5.27;;
12348;SDS011;5974;42.710;27.258;2023-06-22T13:59:15;6.57;;;4.97;;
12348;SDS011;5974;42.710;27.258;2023-06-22T14:01:42;5.32;;;5.00;;
12348;SDS011;5974;42.710;27.258;2023-06-22T14:04:11;6.17;;;5.37;;
12348;SDS011;5974;42.710;27.258;2023-06-22T14:06:37;6.67;;;5.00;;
12348;SDS011;5974;42.710;27.258;2023-06-22T14:09:05;5.60;;;5.10;;
12348;SDS011;5974;42.710;27.258;2023-06-22T14:11:32;5.77;;;5.37;;
12348;SDS011;5974;42.710;27.258;2023-06-22T14:13:59;10.20;;;5.80;;
12348;SDS011;5974;42.710;27.258;2023-06-22T14:16:25;6.13;;;5.50;;
12348;SDS011;5974;42.710;27.258;2023-06-22T14:18:52;5.70;;;5.20;;
12348;SDS011;5974;42.710;27.258;2023-06-22T14:21:21;5.87;;;5.33;;
12348;SDS011;5974;42.710;27.258;2023-06-22T14:23:47;5.67;;;5.13;;
12348;SDS011;5974;42.710;27.258;2023-06-22T14:26:15;5.50;;;5.00;;
12348;SDS011;5974;42.710;27.258;2023-06-22T14:28:44;5.70;;;5.20;;
12348;SDS011;5974;42.710;27.258;2023-06-22T14:31:13;5.37;;;4.87;;
12348;SDS011;5974;42.710;27.258;2023-06-22T14:33:43;6.33;;;5.17;;
12348;SDS011;5974;42.710;27.258;2023-06-22T14:36:12;5.57;;;4.87;;
12348;SDS011;5974;42.710;27.258;2023-06-22T14:38:40;6.57;;;5.90;;
12348;SDS011;5974;42.710;27.258;2023-06-22T14:41:07;6.47;;;5.30;;
12348;SDS011;5974;42.710;27.258;2023-06-22T14:43:34;5.77;;;5.03;;
12348;SDS011;5974;42.710;27.258;2023-06-22T14:46:00;5.60;;;5.03;;
12348;SDS011;5974;42.710;27.258;2023-06-22T14:48:27;5.00;;;4.60;;